sensor_id;sensor_type;location;lat;lon;timestamp;P1;durP1;ratioP1;P2;durP2;ratioP2
72920;SDS011;61064;51.654;5.476;2023-06-14T00:01:38;9.40;;;3.60;;
72920;SDS011;61064;51.654;5.476;2023-06-14T00:04:03;8.82;;;3.53;;
72920;SDS011;61064;51.654;5.476;2023-06-14T00:06:34;9.93;;;3.43;;
72920;SDS011;61064;51.654;5.476;2023-06-14T00:08:59;8.30;;;3.28;;
72920;SDS011;61064;51.654;5.476;2023-06-14T00:11:25;7.63;;;3.53;;
72920;SDS011;61064;51.654;5.476;2023-06-14T00:13:51;8.48;;;3.30;;
72920;SDS011;61064;51.654;5.476;2023-06-14T00:16:17;8.02;;;3.60;;
72920;SDS011;61064;51.654;5.476;2023-06-14T00:18:44;8.75;;;3.40;;
72920;SDS011;61064;51.654;5.476;2023-06-14T00:21:10;7.93;;;3.33;;
72920;SDS011;61064;51.654;5.476;2023-06-14T00:23:35;10.40;;;3.30;;
72920;SDS011;61064;51.654;5.476;2023-06-14T00:26:00;10.03;;;3.10;;
72920;SDS011;61064;51.654;5.476;2023-06-14T00:28:25;8.87;;;3.00;;
72920;SDS011;61064;51.654;5.476;2023-06-14T00:30:51;10.82;;;3.20;;
72920;SDS011;61064;51.654;5.476;2023-06-14T00:33:16;8.17;;;2.97;;
72920;SDS011;61064;51.654;5.476;2023-06-14T00:35:42;7.90;;;3.00;;
72920;SDS011;61064;51.654;5.476;2023-06-14T00:38:07;9.83;;;3.20;;
72920;SDS011;61064;51.654;5.476;2023-06-14T00:40:32;8.00;;;3.10;;
72920;SDS011;61064;51.654;5.476;2023-06-14T00:42:59;9.55;;;3.25;;
72920;SDS011;61064;51.654;5.476;2023-06-14T00:45:25;8.20;;;3.28;;
72920;SDS011;61064;51.654;5.476;2023-06-14T00:47:51;8.07;;;3.10;;
72920;SDS011;61064;51.654;5.476;2023-06-14T00:50:20;11.35;;;2.88;;
72920;SDS011;61064;51.654;5.476;2023-06-14T00:52:45;8.60;;;2.90;;
72920;SDS011;61064;51.654;5.476;2023-06-14T00:55:11;8.98;;;2.92;;
72920;SDS011;61064;51.654;5.476;2023-06-14T00:57:36;8.97;;;2.97;;
72920;SDS011;61064;51.654;5.476;2023-06-14T01:00:02;8.00;;;2.95;;
72920;SDS011;61064;51.654;5.476;2023-06-14T01:02:29;9.27;;;3.13;;
72920;SDS011;61064;51.654;5.476;2023-06-14T01:04:55;8.33;;;2.83;;
72920;SDS011;61064;51.654;5.476;2023-06-14T01:07:33;8.55;;;2.90;;
72920;SDS011;61064;51.654;5.476;2023-06-14T01:13:12;8.18;;;2.72;;
72920;SDS011;61064;51.654;5.476;2023-06-14T01:15:41;8.25;;;2.80;;
72920;SDS011;61064;51.654;5.476;2023-06-14T01:18:08;9.37;;;3.10;;
72920;SDS011;61064;51.654;5.476;2023-06-14T01:20:42;11.68;;;2.92;;
72920;SDS011;61064;51.654;5.476;2023-06-14T01:23:14;7.50;;;2.55;;
72920;SDS011;61064;51.654;5.476;2023-06-14T01:25:41;8.70;;;2.80;;
72920;SDS011;61064;51.654;5.476;2023-06-14T01:28:09;9.30;;;2.90;;
72920;SDS011;61064;51.654;5.476;2023-06-14T01:30:39;7.93;;;3.00;;
72920;SDS011;61064;51.654;5.476;2023-06-14T01:33:13;8.07;;;2.85;;
72920;SDS011;61064;51.654;5.476;2023-06-14T01:35:44;7.78;;;2.65;;
72920;SDS011;61064;51.654;5.476;2023-06-14T01:38:12;9.10;;;2.90;;
72920;SDS011;61064;51.654;5.476;2023-06-14T01:40:39;9.82;;;3.00;;
72920;SDS011;61064;51.654;5.476;2023-06-14T01:43:05;7.20;;;2.50;;
72920;SDS011;61064;51.654;5.476;2023-06-14T01:45:32;11.18;;;3.22;;
72920;SDS011;61064;51.654;5.476;2023-06-14T01:47:58;7.00;;;2.75;;
72920;SDS011;61064;51.654;5.476;2023-06-14T01:50:27;6.47;;;2.60;;
72920;SDS011;61064;51.654;5.476;2023-06-14T01:52:53;6.37;;;2.63;;
72920;SDS011;61064;51.654;5.476;2023-06-14T01:55:19;8.27;;;2.63;;
72920;SDS011;61064;51.654;5.476;2023-06-14T01:57:46;10.37;;;2.50;;
72920;SDS011;61064;51.654;5.476;2023-06-14T02:00:12;6.95;;;2.60;;
72920;SDS011;61064;51.654;5.476;2023-06-14T02:02:39;9.87;;;2.80;;
72920;SDS011;61064;51.654;5.476;2023-06-14T02:05:05;8.18;;;2.55;;
72920;SDS011;61064;51.654;5.476;2023-06-14T02:07:31;7.90;;;2.93;;
72920;SDS011;61064;51.654;5.476;2023-06-14T02:09:56;10.23;;;2.70;;
72920;SDS011;61064;51.654;5.476;2023-06-14T02:12:22;11.00;;;3.00;;
72920;SDS011;61064;51.654;5.476;2023-06-14T02:14:47;8.67;;;2.83;;
72920;SDS011;61064;51.654;5.476;2023-06-14T02:17:13;9.35;;;2.90;;
72920;SDS011;61064;51.654;5.476;2023-06-14T02:19:39;8.40;;;2.60;;
72920;SDS011;61064;51.654;5.476;2023-06-14T02:22:05;11.27;;;3.03;;
72920;SDS011;61064;51.654;5.476;2023-06-14T02:24:31;7.43;;;2.55;;
72920;SDS011;61064;51.654;5.476;2023-06-14T02:26:56;8.77;;;2.67;;
72920;SDS011;61064;51.654;5.476;2023-06-14T02:29:21;7.20;;;2.30;;
72920;SDS011;61064;51.654;5.476;2023-06-14T02:31:47;6.70;;;2.90;;
72920;SDS011;61064;51.654;5.476;2023-06-14T02:34:13;9.13;;;2.78;;
72920;SDS011;61064;51.654;5.476;2023-06-14T02:36:39;10.23;;;2.80;;
72920;SDS011;61064;51.654;5.476;2023-06-14T02:39:06;7.57;;;2.60;;
72920;SDS011;61064;51.654;5.476;2023-06-14T02:41:34;8.68;;;2.80;;
72920;SDS011;61064;51.654;5.476;2023-06-14T02:44:00;7.93;;;2.97;;
72920;SDS011;61064;51.654;5.476;2023-06-14T02:46:25;9.57;;;2.80;;
72920;SDS011;61064;51.654;5.476;2023-06-14T02:48:50;9.43;;;2.70;;
72920;SDS011;61064;51.654;5.476;2023-06-14T02:51:16;9.50;;;2.50;;
72920;SDS011;61064;51.654;5.476;2023-06-14T02:53:41;8.67;;;3.10;;
72920;SDS011;61064;51.654;5.476;2023-06-14T02:56:06;8.87;;;2.93;;
72920;SDS011;61064;51.654;5.476;2023-06-14T02:58:32;9.63;;;3.00;;
72920;SDS011;61064;51.654;5.476;2023-06-14T03:00:58;8.37;;;2.90;;
72920;SDS011;61064;51.654;5.476;2023-06-14T03:03:28;10.15;;;2.92;;
72920;SDS011;61064;51.654;5.476;2023-06-14T03:05:55;7.95;;;2.95;;
72920;SDS011;61064;51.654;5.476;2023-06-14T03:08:21;7.10;;;3.00;;
72920;SDS011;61064;51.654;5.476;2023-06-14T03:10:51;9.13;;;2.80;;
72920;SDS011;61064;51.654;5.476;2023-06-14T03:13:18;7.33;;;2.90;;
72920;SDS011;61064;51.654;5.476;2023-06-14T03:15:47;10.60;;;2.80;;
72920;SDS011;61064;51.654;5.476;2023-06-14T03:18:15;10.13;;;2.57;;
72920;SDS011;61064;51.654;5.476;2023-06-14T03:20:41;7.25;;;2.63;;
72920;SDS011;61064;51.654;5.476;2023-06-14T03:23:08;9.75;;;3.08;;
72920;SDS011;61064;51.654;5.476;2023-06-14T03:25:35;8.25;;;2.88;;
72920;SDS011;61064;51.654;5.476;2023-06-14T03:28:04;7.67;;;2.53;;
72920;SDS011;61064;51.654;5.476;2023-06-14T03:30:31;11.38;;;2.83;;
72920;SDS011;61064;51.654;5.476;2023-06-14T03:32:59;7.53;;;2.90;;
72920;SDS011;61064;51.654;5.476;2023-06-14T03:35:28;6.50;;;2.65;;
72920;SDS011;61064;51.654;5.476;2023-06-14T03:37:54;9.47;;;2.80;;
72920;SDS011;61064;51.654;5.476;2023-06-14T03:40:20;10.50;;;2.67;;
72920;SDS011;61064;51.654;5.476;2023-06-14T03:42:51;8.90;;;2.93;;
72920;SDS011;61064;51.654;5.476;2023-06-14T03:45:17;9.50;;;2.80;;
72920;SDS011;61064;51.654;5.476;2023-06-14T03:47:43;9.63;;;2.78;;
72920;SDS011;61064;51.654;5.476;2023-06-14T03:50:10;7.10;;;2.60;;
72920;SDS011;61064;51.654;5.476;2023-06-14T03:52:36;9.40;;;3.20;;
72920;SDS011;61064;51.654;5.476;2023-06-14T03:55:01;13.50;;;4.17;;
72920;SDS011;61064;51.654;5.476;2023-06-14T03:57:29;7.63;;;2.60;;
72920;SDS011;61064;51.654;5.476;2023-06-14T03:59:55;10.60;;;3.42;;
72920;SDS011;61064;51.654;5.476;2023-06-14T04:02:20;7.13;;;2.73;;
72920;SDS011;61064;51.654;5.476;2023-06-14T04:04:46;7.07;;;2.70;;
72920;SDS011;61064;51.654;5.476;2023-06-14T04:07:13;8.97;;;2.80;;
72920;SDS011;61064;51.654;5.476;2023-06-14T04:09:39;8.75;;;2.50;;
72920;SDS011;61064;51.654;5.476;2023-06-14T04:12:05;9.23;;;2.55;;
72920;SDS011;61064;51.654;5.476;2023-06-14T04:14:31;9.88;;;2.70;;
72920;SDS011;61064;51.654;5.476;2023-06-14T04:16:58;10.00;;;2.85;;
72920;SDS011;61064;51.654;5.476;2023-06-14T04:19:23;10.10;;;2.73;;
72920;SDS011;61064;51.654;5.476;2023-06-14T04:21:49;8.85;;;2.72;;
72920;SDS011;61064;51.654;5.476;2023-06-14T04:24:15;7.60;;;2.60;;
72920;SDS011;61064;51.654;5.476;2023-06-14T04:26:43;8.90;;;2.97;;
72920;SDS011;61064;51.654;5.476;2023-06-14T04:29:12;8.73;;;2.60;;
72920;SDS011;61064;51.654;5.476;2023-06-14T04:31:45;9.27;;;2.75;;
72920;SDS011;61064;51.654;5.476;2023-06-14T04:34:11;8.45;;;2.78;;
72920;SDS011;61064;51.654;5.476;2023-06-14T04:36:41;9.18;;;3.40;;
72920;SDS011;61064;51.654;5.476;2023-06-14T04:39:12;10.73;;;2.90;;
72920;SDS011;61064;51.654;5.476;2023-06-14T04:41:38;7.28;;;2.85;;
72920;SDS011;61064;51.654;5.476;2023-06-14T04:44:03;9.80;;;2.80;;
72920;SDS011;61064;51.654;5.476;2023-06-14T04:46:28;8.30;;;2.73;;
72920;SDS011;61064;51.654;5.476;2023-06-14T04:48:55;9.88;;;2.97;;
72920;SDS011;61064;51.654;5.476;2023-06-14T04:51:21;9.63;;;2.92;;
72920;SDS011;61064;51.654;5.476;2023-06-14T04:53:54;9.45;;;2.92;;
72920;SDS011;61064;51.654;5.476;2023-06-14T04:56:23;11.13;;;2.90;;
72920;SDS011;61064;51.654;5.476;2023-06-14T04:58:50;7.20;;;2.72;;
72920;SDS011;61064;51.654;5.476;2023-06-14T05:01:15;11.07;;;3.42;;
72920;SDS011;61064;51.654;5.476;2023-06-14T05:03:41;9.17;;;2.90;;
72920;SDS011;61064;51.654;5.476;2023-06-14T05:06:06;7.03;;;2.63;;
72920;SDS011;61064;51.654;5.476;2023-06-14T05:08:31;13.67;;;2.93;;
72920;SDS011;61064;51.654;5.476;2023-06-14T05:10:57;8.37;;;2.73;;
72920;SDS011;61064;51.654;5.476;2023-06-14T05:13:23;8.00;;;2.77;;
72920;SDS011;61064;51.654;5.476;2023-06-14T05:15:48;12.27;;;2.90;;
72920;SDS011;61064;51.654;5.476;2023-06-14T05:18:14;11.50;;;2.58;;
72920;SDS011;61064;51.654;5.476;2023-06-14T05:20:40;7.83;;;2.60;;
72920;SDS011;61064;51.654;5.476;2023-06-14T05:23:07;8.45;;;2.63;;
72920;SDS011;61064;51.654;5.476;2023-06-14T05:25:32;7.70;;;2.60;;
72920;SDS011;61064;51.654;5.476;2023-06-14T05:27:58;9.47;;;2.57;;
72920;SDS011;61064;51.654;5.476;2023-06-14T05:30:23;9.80;;;2.90;;
72920;SDS011;61064;51.654;5.476;2023-06-14T05:32:48;8.90;;;3.33;;
72920;SDS011;61064;51.654;5.476;2023-06-14T05:35:14;9.27;;;2.87;;
72920;SDS011;61064;51.654;5.476;2023-06-14T05:37:39;10.13;;;3.00;;
72920;SDS011;61064;51.654;5.476;2023-06-14T05:40:05;8.40;;;3.03;;
72920;SDS011;61064;51.654;5.476;2023-06-14T05:42:31;8.38;;;2.95;;
72920;SDS011;61064;51.654;5.476;2023-06-14T05:44:57;8.52;;;2.85;;
72920;SDS011;61064;51.654;5.476;2023-06-14T05:47:23;10.20;;;2.60;;
72920;SDS011;61064;51.654;5.476;2023-06-14T05:49:48;9.73;;;2.50;;
72920;SDS011;61064;51.654;5.476;2023-06-14T05:52:13;11.37;;;2.80;;
72920;SDS011;61064;51.654;5.476;2023-06-14T05:54:39;7.80;;;3.00;;
72920;SDS011;61064;51.654;5.476;2023-06-14T05:57:04;6.30;;;2.50;;
72920;SDS011;61064;51.654;5.476;2023-06-14T05:59:31;9.40;;;3.13;;
72920;SDS011;61064;51.654;5.476;2023-06-14T06:01:57;7.65;;;2.70;;
72920;SDS011;61064;51.654;5.476;2023-06-14T06:04:22;6.63;;;2.37;;
72920;SDS011;61064;51.654;5.476;2023-06-14T06:06:48;8.13;;;2.70;;
72920;SDS011;61064;51.654;5.476;2023-06-14T06:09:13;12.53;;;2.70;;
72920;SDS011;61064;51.654;5.476;2023-06-14T06:11:42;10.00;;;2.90;;
72920;SDS011;61064;51.654;5.476;2023-06-14T06:14:07;6.80;;;2.47;;
72920;SDS011;61064;51.654;5.476;2023-06-14T06:16:32;7.37;;;2.63;;
72920;SDS011;61064;51.654;5.476;2023-06-14T06:18:58;8.17;;;2.40;;
72920;SDS011;61064;51.654;5.476;2023-06-14T06:21:24;7.27;;;2.50;;
72920;SDS011;61064;51.654;5.476;2023-06-14T06:23:49;7.53;;;2.60;;
72920;SDS011;61064;51.654;5.476;2023-06-14T06:26:15;7.70;;;2.60;;
72920;SDS011;61064;51.654;5.476;2023-06-14T06:28:40;6.13;;;2.37;;
72920;SDS011;61064;51.654;5.476;2023-06-14T06:31:06;8.60;;;2.40;;
72920;SDS011;61064;51.654;5.476;2023-06-14T06:33:31;12.10;;;3.10;;
72920;SDS011;61064;51.654;5.476;2023-06-14T06:35:56;10.20;;;2.85;;
72920;SDS011;61064;51.654;5.476;2023-06-14T06:38:22;8.17;;;2.80;;
72920;SDS011;61064;51.654;5.476;2023-06-14T06:40:47;7.97;;;2.73;;
72920;SDS011;61064;51.654;5.476;2023-06-14T06:43:13;9.47;;;2.80;;
72920;SDS011;61064;51.654;5.476;2023-06-14T06:45:39;6.53;;;2.60;;
72920;SDS011;61064;51.654;5.476;2023-06-14T06:48:07;9.55;;;2.72;;
72920;SDS011;61064;51.654;5.476;2023-06-14T06:50:34;7.10;;;2.57;;
72920;SDS011;61064;51.654;5.476;2023-06-14T06:53:00;8.38;;;2.80;;
72920;SDS011;61064;51.654;5.476;2023-06-14T06:55:25;10.23;;;2.93;;
72920;SDS011;61064;51.654;5.476;2023-06-14T06:57:50;7.60;;;2.70;;
72920;SDS011;61064;51.654;5.476;2023-06-14T07:00:17;8.07;;;2.55;;
72920;SDS011;61064;51.654;5.476;2023-06-14T07:02:43;6.77;;;2.83;;
72920;SDS011;61064;51.654;5.476;2023-06-14T07:05:08;7.47;;;2.97;;
72920;SDS011;61064;51.654;5.476;2023-06-14T07:07:34;8.30;;;2.70;;
72920;SDS011;61064;51.654;5.476;2023-06-14T07:09:59;9.77;;;3.00;;
72920;SDS011;61064;51.654;5.476;2023-06-14T07:12:25;8.32;;;2.63;;
72920;SDS011;61064;51.654;5.476;2023-06-14T07:14:50;7.90;;;2.30;;
72920;SDS011;61064;51.654;5.476;2023-06-14T07:17:16;7.70;;;2.67;;
72920;SDS011;61064;51.654;5.476;2023-06-14T07:19:41;12.93;;;3.30;;
72920;SDS011;61064;51.654;5.476;2023-06-14T07:22:07;9.77;;;2.60;;
72920;SDS011;61064;51.654;5.476;2023-06-14T07:24:32;10.40;;;2.70;;
72920;SDS011;61064;51.654;5.476;2023-06-14T07:26:57;9.63;;;2.40;;
72920;SDS011;61064;51.654;5.476;2023-06-14T07:29:23;7.00;;;2.40;;
72920;SDS011;61064;51.654;5.476;2023-06-14T07:31:48;7.83;;;2.50;;
72920;SDS011;61064;51.654;5.476;2023-06-14T07:34:14;7.93;;;2.50;;
72920;SDS011;61064;51.654;5.476;2023-06-14T07:36:39;6.75;;;2.63;;
72920;SDS011;61064;51.654;5.476;2023-06-14T07:39:05;8.13;;;2.73;;
72920;SDS011;61064;51.654;5.476;2023-06-14T07:41:31;9.15;;;2.58;;
72920;SDS011;61064;51.654;5.476;2023-06-14T07:43:57;7.60;;;2.37;;
72920;SDS011;61064;51.654;5.476;2023-06-14T07:46:23;7.97;;;2.50;;
72920;SDS011;61064;51.654;5.476;2023-06-14T07:48:48;8.33;;;2.40;;
72920;SDS011;61064;51.654;5.476;2023-06-14T07:51:13;6.37;;;2.40;;
72920;SDS011;61064;51.654;5.476;2023-06-14T07:53:39;7.93;;;2.60;;
72920;SDS011;61064;51.654;5.476;2023-06-14T07:56:05;9.38;;;2.60;;
72920;SDS011;61064;51.654;5.476;2023-06-14T07:58:31;9.20;;;2.40;;
72920;SDS011;61064;51.654;5.476;2023-06-14T08:00:56;8.87;;;2.50;;
72920;SDS011;61064;51.654;5.476;2023-06-14T08:03:21;7.07;;;2.10;;
72920;SDS011;61064;51.654;5.476;2023-06-14T08:05:47;6.78;;;2.10;;
72920;SDS011;61064;51.654;5.476;2023-06-14T08:08:13;7.20;;;2.30;;
72920;SDS011;61064;51.654;5.476;2023-06-14T08:10:38;8.17;;;2.37;;
72920;SDS011;61064;51.654;5.476;2023-06-14T08:13:03;8.05;;;2.22;;
72920;SDS011;61064;51.654;5.476;2023-06-14T08:15:29;7.13;;;1.80;;
72920;SDS011;61064;51.654;5.476;2023-06-14T08:17:54;6.53;;;1.80;;
72920;SDS011;61064;51.654;5.476;2023-06-14T08:20:20;7.07;;;1.93;;
72920;SDS011;61064;51.654;5.476;2023-06-14T08:22:45;8.50;;;1.80;;
72920;SDS011;61064;51.654;5.476;2023-06-14T08:25:13;7.03;;;2.00;;
72920;SDS011;61064;51.654;5.476;2023-06-14T08:27:38;8.45;;;1.92;;
72920;SDS011;61064;51.654;5.476;2023-06-14T08:30:04;6.97;;;1.90;;
72920;SDS011;61064;51.654;5.476;2023-06-14T08:32:30;6.47;;;2.28;;
72920;SDS011;61064;51.654;5.476;2023-06-14T08:34:55;6.93;;;1.97;;
72920;SDS011;61064;51.654;5.476;2023-06-14T08:37:20;6.00;;;2.00;;
72920;SDS011;61064;51.654;5.476;2023-06-14T08:39:46;8.00;;;2.00;;
72920;SDS011;61064;51.654;5.476;2023-06-14T08:42:11;8.80;;;1.90;;
72920;SDS011;61064;51.654;5.476;2023-06-14T08:44:39;6.80;;;1.80;;
72920;SDS011;61064;51.654;5.476;2023-06-14T08:47:05;7.28;;;1.88;;
72920;SDS011;61064;51.654;5.476;2023-06-14T08:49:32;6.57;;;1.83;;
72920;SDS011;61064;51.654;5.476;2023-06-14T08:51:58;8.73;;;1.70;;
72920;SDS011;61064;51.654;5.476;2023-06-14T08:54:25;8.93;;;1.50;;
72920;SDS011;61064;51.654;5.476;2023-06-14T08:56:52;5.10;;;1.50;;
72920;SDS011;61064;51.654;5.476;2023-06-14T08:59:23;6.15;;;1.58;;
72920;SDS011;61064;51.654;5.476;2023-06-14T09:01:50;9.35;;;1.77;;
72920;SDS011;61064;51.654;5.476;2023-06-14T09:04:17;4.70;;;1.50;;
72920;SDS011;61064;51.654;5.476;2023-06-14T09:06:44;5.70;;;1.50;;
72920;SDS011;61064;51.654;5.476;2023-06-14T09:09:10;4.50;;;1.30;;
72920;SDS011;61064;51.654;5.476;2023-06-14T09:11:36;6.80;;;1.50;;
72920;SDS011;61064;51.654;5.476;2023-06-14T09:14:01;4.30;;;1.20;;
72920;SDS011;61064;51.654;5.476;2023-06-14T09:16:27;3.17;;;1.00;;
72920;SDS011;61064;51.654;5.476;2023-06-14T09:18:53;7.43;;;1.30;;
72920;SDS011;61064;51.654;5.476;2023-06-14T09:21:19;4.70;;;1.07;;
72920;SDS011;61064;51.654;5.476;2023-06-14T09:23:46;3.65;;;1.00;;
72920;SDS011;61064;51.654;5.476;2023-06-14T09:26:13;4.57;;;1.10;;
72920;SDS011;61064;51.654;5.476;2023-06-14T09:28:41;4.32;;;1.10;;
72920;SDS011;61064;51.654;5.476;2023-06-14T09:31:11;4.80;;;1.10;;
72920;SDS011;61064;51.654;5.476;2023-06-14T09:33:37;5.47;;;1.00;;
72920;SDS011;61064;51.654;5.476;2023-06-14T09:36:03;4.18;;;1.10;;
72920;SDS011;61064;51.654;5.476;2023-06-14T09:38:30;5.22;;;1.08;;
72920;SDS011;61064;51.654;5.476;2023-06-14T09:40:58;5.17;;;1.17;;
72920;SDS011;61064;51.654;5.476;2023-06-14T09:43:24;4.63;;;1.13;;
72920;SDS011;61064;51.654;5.476;2023-06-14T09:45:52;5.07;;;1.30;;
72920;SDS011;61064;51.654;5.476;2023-06-14T09:48:19;4.05;;;1.08;;
72920;SDS011;61064;51.654;5.476;2023-06-14T09:50:45;4.00;;;1.15;;
72920;SDS011;61064;51.654;5.476;2023-06-14T09:53:12;6.20;;;1.50;;
72920;SDS011;61064;51.654;5.476;2023-06-14T09:55:40;5.82;;;1.30;;
72920;SDS011;61064;51.654;5.476;2023-06-14T09:58:06;4.63;;;1.25;;
72920;SDS011;61064;51.654;5.476;2023-06-14T10:00:33;5.05;;;1.17;;
72920;SDS011;61064;51.654;5.476;2023-06-14T10:03:13;5.20;;;1.35;;
72920;SDS011;61064;51.654;5.476;2023-06-14T10:05:43;7.00;;;1.30;;
72920;SDS011;61064;51.654;5.476;2023-06-14T10:08:11;5.32;;;1.33;;
72920;SDS011;61064;51.654;5.476;2023-06-14T10:10:41;5.18;;;1.30;;
72920;SDS011;61064;51.654;5.476;2023-06-14T10:13:07;7.25;;;1.60;;
72920;SDS011;61064;51.654;5.476;2023-06-14T10:18:28;4.80;;;1.50;;
72920;SDS011;61064;51.654;5.476;2023-06-14T10:21:11;5.82;;;1.40;;
72920;SDS011;61064;51.654;5.476;2023-06-14T10:23:47;5.03;;;1.48;;
72920;SDS011;61064;51.654;5.476;2023-06-14T10:26:21;7.20;;;1.47;;
72920;SDS011;61064;51.654;5.476;2023-06-14T10:29:01;4.60;;;1.38;;
72920;SDS011;61064;51.654;5.476;2023-06-14T10:32:06;5.13;;;1.35;;
72920;SDS011;61064;51.654;5.476;2023-06-14T10:34:26;7.78;;;1.40;;
72920;SDS011;61064;51.654;5.476;2023-06-14T10:37:00;4.63;;;1.67;;
72920;SDS011;61064;51.654;5.476;2023-06-14T10:39:39;6.60;;;1.40;;
72920;SDS011;61064;51.654;5.476;2023-06-14T10:42:06;6.88;;;1.30;;
72920;SDS011;61064;51.654;5.476;2023-06-14T10:46:58;5.47;;;1.37;;
72920;SDS011;61064;51.654;5.476;2023-06-14T10:49:37;4.70;;;1.35;;
72920;SDS011;61064;51.654;5.476;2023-06-14T10:52:11;4.80;;;1.48;;
72920;SDS011;61064;51.654;5.476;2023-06-14T10:55:01;4.63;;;1.20;;
72920;SDS011;61064;51.654;5.476;2023-06-14T10:57:29;6.78;;;1.50;;
72920;SDS011;61064;51.654;5.476;2023-06-14T10:59:56;6.47;;;1.40;;
72920;SDS011;61064;51.654;5.476;2023-06-14T11:05:03;4.47;;;1.25;;
72920;SDS011;61064;51.654;5.476;2023-06-14T11:10:40;5.68;;;1.48;;
72920;SDS011;61064;51.654;5.476;2023-06-14T11:13:08;7.40;;;1.50;;
72920;SDS011;61064;51.654;5.476;2023-06-14T11:15:34;4.80;;;1.30;;
72920;SDS011;61064;51.654;5.476;2023-06-14T11:18:02;4.53;;;1.02;;
72920;SDS011;61064;51.654;5.476;2023-06-14T11:20:30;5.60;;;1.45;;
72920;SDS011;61064;51.654;5.476;2023-06-14T11:22:56;7.57;;;1.50;;
72920;SDS011;61064;51.654;5.476;2023-06-14T11:25:22;4.20;;;1.30;;
72920;SDS011;61064;51.654;5.476;2023-06-14T11:27:51;3.90;;;1.10;;
72920;SDS011;61064;51.654;5.476;2023-06-14T11:30:17;6.57;;;1.45;;
72920;SDS011;61064;51.654;5.476;2023-06-14T11:32:45;10.67;;;1.57;;
72920;SDS011;61064;51.654;5.476;2023-06-14T11:35:15;5.57;;;1.30;;
72920;SDS011;61064;51.654;5.476;2023-06-14T11:37:42;5.55;;;1.30;;
72920;SDS011;61064;51.654;5.476;2023-06-14T11:40:09;7.87;;;1.30;;
72920;SDS011;61064;51.654;5.476;2023-06-14T11:42:37;4.25;;;1.35;;
72920;SDS011;61064;51.654;5.476;2023-06-14T11:45:03;5.20;;;1.30;;
72920;SDS011;61064;51.654;5.476;2023-06-14T11:47:37;4.15;;;1.30;;
72920;SDS011;61064;51.654;5.476;2023-06-14T11:50:04;5.22;;;1.42;;
72920;SDS011;61064;51.654;5.476;2023-06-14T11:52:31;4.47;;;1.63;;
72920;SDS011;61064;51.654;5.476;2023-06-14T11:54:57;6.15;;;1.38;;
72920;SDS011;61064;51.654;5.476;2023-06-14T11:57:23;6.22;;;1.52;;
72920;SDS011;61064;51.654;5.476;2023-06-14T11:59:50;5.05;;;1.38;;
72920;SDS011;61064;51.654;5.476;2023-06-14T12:02:16;5.38;;;1.40;;
72920;SDS011;61064;51.654;5.476;2023-06-14T12:04:43;6.40;;;1.40;;
72920;SDS011;61064;51.654;5.476;2023-06-14T12:07:12;6.90;;;1.45;;
72920;SDS011;61064;51.654;5.476;2023-06-14T12:10:03;4.60;;;1.40;;
72920;SDS011;61064;51.654;5.476;2023-06-14T12:12:34;4.97;;;1.50;;
72920;SDS011;61064;51.654;5.476;2023-06-14T12:15:02;4.28;;;1.52;;
72920;SDS011;61064;51.654;5.476;2023-06-14T12:17:31;5.60;;;1.67;;
72920;SDS011;61064;51.654;5.476;2023-06-14T12:19:57;6.88;;;1.63;;
72920;SDS011;61064;51.654;5.476;2023-06-14T12:22:22;6.20;;;1.50;;
72920;SDS011;61064;51.654;5.476;2023-06-14T12:24:48;6.27;;;1.60;;
72920;SDS011;61064;51.654;5.476;2023-06-14T12:27:14;5.25;;;1.50;;
72920;SDS011;61064;51.654;5.476;2023-06-14T12:29:44;6.88;;;1.80;;
72920;SDS011;61064;51.654;5.476;2023-06-14T12:32:10;4.53;;;1.48;;
72920;SDS011;61064;51.654;5.476;2023-06-14T12:34:36;5.95;;;1.58;;
72920;SDS011;61064;51.654;5.476;2023-06-14T12:37:02;5.97;;;1.63;;
72920;SDS011;61064;51.654;5.476;2023-06-14T12:39:29;6.65;;;1.60;;
72920;SDS011;61064;51.654;5.476;2023-06-14T12:41:56;6.35;;;1.40;;
72920;SDS011;61064;51.654;5.476;2023-06-14T12:44:22;4.15;;;1.48;;
72920;SDS011;61064;51.654;5.476;2023-06-14T12:46:48;5.07;;;1.63;;
72920;SDS011;61064;51.654;5.476;2023-06-14T12:49:16;5.57;;;1.50;;
72920;SDS011;61064;51.654;5.476;2023-06-14T12:51:41;5.97;;;1.50;;
72920;SDS011;61064;51.654;5.476;2023-06-14T12:54:07;3.95;;;1.30;;
72920;SDS011;61064;51.654;5.476;2023-06-14T12:56:32;5.33;;;1.40;;
72920;SDS011;61064;51.654;5.476;2023-06-14T12:58:58;6.90;;;1.53;;
72920;SDS011;61064;51.654;5.476;2023-06-14T13:01:23;6.80;;;1.52;;
72920;SDS011;61064;51.654;5.476;2023-06-14T13:03:48;5.37;;;1.50;;
72920;SDS011;61064;51.654;5.476;2023-06-14T13:06:16;7.15;;;1.50;;
72920;SDS011;61064;51.654;5.476;2023-06-14T13:08:42;4.33;;;1.33;;
72920;SDS011;61064;51.654;5.476;2023-06-14T13:11:07;6.90;;;1.30;;
72920;SDS011;61064;51.654;5.476;2023-06-14T13:13:32;5.77;;;1.10;;
72920;SDS011;61064;51.654;5.476;2023-06-14T13:15:58;5.73;;;1.40;;
72920;SDS011;61064;51.654;5.476;2023-06-14T13:18:23;4.22;;;1.25;;
72920;SDS011;61064;51.654;5.476;2023-06-14T13:20:48;4.97;;;1.40;;
72920;SDS011;61064;51.654;5.476;2023-06-14T13:23:15;4.77;;;1.20;;
72920;SDS011;61064;51.654;5.476;2023-06-14T13:25:40;6.10;;;1.40;;
72920;SDS011;61064;51.654;5.476;2023-06-14T13:28:06;6.70;;;1.43;;
72920;SDS011;61064;51.654;5.476;2023-06-14T13:30:31;6.03;;;1.40;;
72920;SDS011;61064;51.654;5.476;2023-06-14T13:32:58;4.63;;;1.50;;
72920;SDS011;61064;51.654;5.476;2023-06-14T13:35:24;4.22;;;1.23;;
72920;SDS011;61064;51.654;5.476;2023-06-14T13:37:50;5.67;;;1.60;;
72920;SDS011;61064;51.654;5.476;2023-06-14T13:40:15;8.50;;;1.40;;
72920;SDS011;61064;51.654;5.476;2023-06-14T13:42:41;6.60;;;1.40;;
72920;SDS011;61064;51.654;5.476;2023-06-14T13:45:06;5.57;;;1.40;;
72920;SDS011;61064;51.654;5.476;2023-06-14T13:47:33;4.15;;;1.27;;
72920;SDS011;61064;51.654;5.476;2023-06-14T13:49:58;6.33;;;1.47;;
72920;SDS011;61064;51.654;5.476;2023-06-14T13:52:24;5.13;;;1.40;;
72920;SDS011;61064;51.654;5.476;2023-06-14T13:54:49;5.68;;;1.45;;
72920;SDS011;61064;51.654;5.476;2023-06-14T13:57:15;6.17;;;1.30;;
72920;SDS011;61064;51.654;5.476;2023-06-14T13:59:41;3.78;;;1.30;;
72920;SDS011;61064;51.654;5.476;2023-06-14T14:02:09;5.07;;;1.30;;
72920;SDS011;61064;51.654;5.476;2023-06-14T14:04:35;5.13;;;1.20;;
72920;SDS011;61064;51.654;5.476;2023-06-14T14:07:01;5.47;;;1.30;;
72920;SDS011;61064;51.654;5.476;2023-06-14T14:09:27;5.72;;;1.40;;
72920;SDS011;61064;51.654;5.476;2023-06-14T14:11:52;5.67;;;1.50;;
72920;SDS011;61064;51.654;5.476;2023-06-14T14:14:17;5.93;;;1.37;;
72920;SDS011;61064;51.654;5.476;2023-06-14T14:16:43;6.90;;;1.40;;
72920;SDS011;61064;51.654;5.476;2023-06-14T14:19:08;3.63;;;1.17;;
72920;SDS011;61064;51.654;5.476;2023-06-14T14:21:34;3.80;;;1.20;;
72920;SDS011;61064;51.654;5.476;2023-06-14T14:24:00;4.45;;;1.40;;
72920;SDS011;61064;51.654;5.476;2023-06-14T14:26:25;6.77;;;1.20;;
72920;SDS011;61064;51.654;5.476;2023-06-14T14:28:51;3.67;;;1.20;;
72920;SDS011;61064;51.654;5.476;2023-06-14T14:31:16;4.03;;;0.93;;
72920;SDS011;61064;51.654;5.476;2023-06-14T14:33:42;7.40;;;1.20;;
72920;SDS011;61064;51.654;5.476;2023-06-14T14:36:07;4.70;;;1.00;;
72920;SDS011;61064;51.654;5.476;2023-06-14T14:38:33;5.63;;;1.20;;
72920;SDS011;61064;51.654;5.476;2023-06-14T14:40:58;3.78;;;1.10;;
72920;SDS011;61064;51.654;5.476;2023-06-14T14:43:24;3.80;;;1.20;;
72920;SDS011;61064;51.654;5.476;2023-06-14T14:45:49;3.43;;;1.10;;
72920;SDS011;61064;51.654;5.476;2023-06-14T14:48:15;4.50;;;1.10;;
72920;SDS011;61064;51.654;5.476;2023-06-14T14:50:40;4.53;;;1.07;;
72920;SDS011;61064;51.654;5.476;2023-06-14T14:53:08;4.60;;;1.05;;
72920;SDS011;61064;51.654;5.476;2023-06-14T14:55:33;4.70;;;1.10;;
72920;SDS011;61064;51.654;5.476;2023-06-14T14:58:01;5.47;;;1.30;;